Time;durP1;ratioP1;P1;durP2;ratioP2;P2;SDS_P1;SDS_P2;PMS_P1;PMS_P2;Temp;Humidity;BMP_temperature;BMP_pressure;BME280_temperature;BME280_humidity;BME280_pressure;Samples;Min_cycle;Max_cycle;Signal;HPM_P1;HPM_P2
2021/01/07 00:00:37;;;;;;;5.53;0.90;;;21.20;90.40;;;;;;5069802;28;20390;-83
2021/01/07 00:03:05;;;;;;;3.70;0.90;;;21.10;90.70;;;;;;5045327;28;20458;-83
2021/01/07 00:05:32;;;;;;;4.40;0.90;;;21.20;91.80;;;;;;5064893;28;20410;-82
2021/01/07 00:07:59;;;;;;;7.47;0.80;;;21.40;90.10;;;;;;5068690;28;20420;-83
2021/01/07 00:10:26;;;;;;;4.95;0.60;;;21.20;89.90;;;;;;5069750;28;20417;-83
2021/01/07 00:12:54;;;;;;;4.53;0.80;;;20.90;91.00;;;;;;5070551;28;20397;-84
2021/01/07 00:15:21;;;;;;;3.35;0.90;;;20.70;91.50;;;;;;5062735;28;20785;-83
2021/01/07 00:17:48;;;;;;;4.50;0.73;;;20.90;92.90;;;;;;5067883;28;20420;-83
2021/01/07 00:20:16;;;;;;;3.80;0.73;;;21.20;91.40;;;;;;5069615;28;20395;-84
2021/01/07 00:22:43;;;;;;;4.20;1.17;;;21.10;90.80;;;;;;5071101;28;20928;-84
2021/01/07 00:25:10;;;;;;;4.30;1.23;;;20.80;91.60;;;;;;5067588;28;20873;-82
2021/01/07 00:27:37;;;;;;;7.25;1.27;;;20.70;92.00;;;;;;5065570;28;20940;-82
2021/01/07 00:30:07;;;;;;;4.50;0.98;;;20.60;92.50;;;;;;5067611;28;20488;-83
2021/01/07 00:32:34;;;;;;;4.72;0.77;;;21.00;93.60;;;;;;5064318;28;20386;-82
2021/01/07 00:35:01;;;;;;;8.43;1.40;;;22.10;91.20;;;;;;5059439;28;20406;-81
2021/01/07 00:37:28;;;;;;;5.05;0.80;;;23.00;90.90;;;;;;5062783;28;20397;-82
2021/01/07 00:39:55;;;;;;;3.83;0.90;;;23.60;84.10;;;;;;5060110;28;20396;-82
2021/01/07 00:42:23;;;;;;;3.83;0.77;;;23.80;81.30;;;;;;5065062;28;20414;-81
2021/01/07 00:44:50;;;;;;;3.60;0.87;;;23.10;84.30;;;;;;5069321;28;20410;-82
2021/01/07 00:47:17;;;;;;;7.00;1.00;;;21.90;86.00;;;;;;5064205;28;20439;-82
2021/01/07 00:49:45;;;;;;;3.58;0.80;;;21.60;90.60;;;;;;5060130;28;20485;-82
2021/01/07 00:52:12;;;;;;;4.75;0.60;;;22.30;88.60;;;;;;5069085;28;20401;-82
2021/01/07 00:54:39;;;;;;;5.43;1.00;;;22.70;86.60;;;;;;5061653;28;20474;-82
2021/01/07 00:57:06;;;;;;;5.13;1.45;;;22.50;86.30;;;;;;5069700;28;20387;-81
2021/01/07 00:59:33;;;;;;;2.85;0.60;;;22.60;87.80;;;;;;5067309;28;20386;-83
2021/01/07 01:02:00;;;;;;;2.90;0.77;;;22.90;87.50;;;;;;5066687;28;20850;-81
2021/01/07 01:04:27;;;;;;;4.50;0.68;;;22.90;86.80;;;;;;5061566;28;20409;-82
2021/01/07 01:06:54;;;;;;;5.57;0.60;;;22.40;86.30;;;;;;5069428;28;20382;-82
2021/01/07 01:09:21;;;;;;;3.25;0.60;;;21.70;88.60;;;;;;5061046;28;20405;-82
2021/01/07 01:11:49;;;;;;;5.35;0.77;;;21.30;90.60;;;;;;5059855;28;20934;-82
2021/01/07 01:14:17;;;;;;;3.95;0.73;;;21.60;89.50;;;;;;5066129;28;20398;-82
2021/01/07 01:16:50;;;;;;;2.85;0.80;;;22.00;89.90;;;;;;5066367;28;20408;-83
2021/01/07 01:19:17;;;;;;;3.25;0.80;;;21.70;90.00;;;;;;5057856;28;20385;-83
2021/01/07 01:21:45;;;;;;;2.08;0.60;;;21.30;90.30;;;;;;5064773;28;20401;-81
2021/01/07 01:24:12;;;;;;;3.42;0.60;;;20.50;92.30;;;;;;5067900;28;20437;-82
2021/01/07 01:26:39;;;;;;;4.00;0.60;;;19.90;94.30;;;;;;5063897;28;20493;-82
2021/01/07 01:29:06;;;;;;;1.60;0.50;;;19.60;95.90;;;;;;5055726;28;20473;-82
2021/01/07 01:31:40;;;;;;;1.90;0.30;;;19.50;95.50;;;;;;5069484;28;20377;-81
2021/01/07 01:34:08;;;;;;;1.83;0.25;;;19.40;95.10;;;;;;5063681;28;20394;-82
2021/01/07 01:36:35;;;;;;;1.92;0.40;;;19.50;94.80;;;;;;5067817;28;20398;-82
2021/01/07 01:39:03;;;;;;;2.80;0.30;;;19.60;94.90;;;;;;5061160;28;20393;-82
2021/01/07 01:41:30;;;;;;;1.75;0.30;;;19.80;94.70;;;;;;5065103;28;20421;-82
2021/01/07 01:43:57;;;;;;;2.05;0.40;;;19.90;95.20;;;;;;5065297;28;20397;-82
2021/01/07 01:46:44;;;;;;;0.50;0.20;;;20.00;94.50;;;;;;5069575;28;20422;-84
2021/01/07 01:49:15;;;;;;;2.10;0.38;;;20.00;93.40;;;;;;5050183;28;20397;-84
2021/01/07 01:51:42;;;;;;;1.00;0.30;;;19.90;94.50;;;;;;5069381;28;20919;-83
2021/01/07 01:54:10;;;;;;;0.77;0.20;;;19.80;94.20;;;;;;5069094;28;21187;-84
2021/01/07 01:56:39;;;;;;;0.70;0.30;;;19.80;94.60;;;;;;5065441;28;20390;-84
2021/01/07 01:59:06;;;;;;;0.80;0.20;;;19.70;95.00;;;;;;5061218;28;20398;-83
2021/01/07 02:01:33;;;;;;;0.30;0.20;;;19.80;96.00;;;;;;5065676;28;20394;-84
2021/01/07 02:04:00;;;;;;;3.40;0.40;;;19.50;96.50;;;;;;5065920;28;20436;-83
2021/01/07 02:06:28;;;;;;;1.02;0.20;;;19.40;97.80;;;;;;5067699;28;20413;-84
2021/01/07 02:08:56;;;;;;;0.60;0.20;;;19.60;98.00;;;;;;5068012;28;20374;-84
2021/01/07 02:11:23;;;;;;;0.97;0.23;;;19.80;96.80;;;;;;5067394;28;20409;-83
2021/01/07 02:13:50;;;;;;;0.80;0.20;;;19.70;97.70;;;;;;5069646;28;20452;-84
2021/01/07 02:16:24;;;;;;;1.00;0.20;;;19.70;96.70;;;;;;5050259;28;20402;-84
2021/01/07 02:18:55;;;;;;;0.82;0.20;;;19.40;98.60;;;;;;5068144;28;20384;-83
2021/01/07 02:21:22;;;;;;;2.50;0.50;;;19.20;99.40;;;;;;5068988;28;21232;-83
2021/01/07 02:23:55;;;;;;;1.00;0.20;;;19.10;99.90;;;;;;5065154;28;20756;-82
2021/01/07 02:26:23;;;;;;;1.33;0.30;;;18.90;99.90;;;;;;5070483;28;20492;-82
2021/01/07 02:28:50;;;;;;;1.85;0.30;;;18.80;99.90;;;;;;5069228;28;20401;-82
2021/01/07 02:31:18;;;;;;;1.63;0.20;;;18.90;99.90;;;;;;5068564;28;20401;-82
2021/01/07 02:33:46;;;;;;;1.40;0.30;;;18.90;99.90;;;;;;5068962;28;20383;-81
2021/01/07 02:36:13;;;;;;;2.53;0.30;;;19.10;99.90;;;;;;5067722;28;20417;-81
2021/01/07 02:38:40;;;;;;;2.45;0.40;;;19.40;99.90;;;;;;5067619;28;20377;-82
2021/01/07 02:41:08;;;;;;;0.70;0.32;;;19.30;99.90;;;;;;5063144;28;20723;-82
2021/01/07 02:43:38;;;;;;;1.98;0.60;;;19.20;99.90;;;;;;5068551;28;20378;-82
2021/01/07 02:46:05;;;;;;;2.33;0.50;;;19.00;99.90;;;;;;5060235;28;20387;-82
2021/01/07 02:48:33;;;;;;;1.65;0.40;;;19.00;99.90;;;;;;5065753;28;20750;-80
2021/01/07 02:51:01;;;;;;;1.55;0.30;;;19.00;99.90;;;;;;5066002;28;20835;-80
2021/01/07 02:53:28;;;;;;;3.90;0.50;;;19.10;99.90;;;;;;5067708;28;20524;-80
2021/01/07 02:55:55;;;;;;;2.03;0.30;;;19.30;99.90;;;;;;5065096;28;20414;-81
2021/01/07 02:58:22;;;;;;;1.80;0.30;;;19.50;99.90;;;;;;5068501;28;20377;-82
2021/01/07 03:00:49;;;;;;;1.70;0.40;;;19.70;99.90;;;;;;5068839;28;20386;-81
2021/01/07 03:03:16;;;;;;;2.88;0.50;;;19.70;99.70;;;;;;5055696;28;20474;-81
2021/01/07 03:05:43;;;;;;;1.45;0.30;;;19.80;99.30;;;;;;5057869;28;20403;-82
2021/01/07 03:08:10;;;;;;;2.95;0.40;;;20.00;99.10;;;;;;5064460;28;20402;-81
2021/01/07 03:10:37;;;;;;;1.85;0.40;;;19.90;97.90;;;;;;5055789;28;20384;-81
2021/01/07 03:13:04;;;;;;;1.35;0.40;;;19.70;98.30;;;;;;5059428;28;20458;-81
2021/01/07 03:15:31;;;;;;;0.73;0.20;;;19.60;98.90;;;;;;5066558;28;21160;-81
2021/01/07 03:17:58;;;;;;;2.22;0.20;;;19.10;99.90;;;;;;5068268;28;20454;-81
2021/01/07 03:20:25;;;;;;;1.95;0.30;;;18.40;99.90;;;;;;5060938;28;20393;-80
2021/01/07 03:22:52;;;;;;;1.70;0.47;;;18.00;99.90;;;;;;5062087;28;20425;-79
2021/01/07 03:25:20;;;;;;;2.80;0.40;;;17.80;99.90;;;;;;5066435;28;20926;-80
2021/01/07 03:27:47;;;;;;;1.70;0.40;;;17.70;99.90;;;;;;5066651;28;20973;-81
2021/01/07 03:30:14;;;;;;;1.02;0.52;;;17.70;99.90;;;;;;5071859;28;20393;-82
2021/01/07 03:32:42;;;;;;;2.70;0.60;;;17.80;99.90;;;;;;5071013;28;20404;-80
2021/01/07 03:35:10;;;;;;;2.00;0.47;;;17.70;99.90;;;;;;5070178;28;20435;-80
2021/01/07 03:37:37;;;;;;;5.95;0.70;;;17.60;99.90;;;;;;5069038;28;20397;-80
2021/01/07 03:40:05;;;;;;;2.63;0.68;;;17.60;99.90;;;;;;5062728;28;20443;-79
2021/01/07 03:42:32;;;;;;;2.53;0.90;;;17.70;99.90;;;;;;5067062;28;20773;-80
2021/01/07 03:44:59;;;;;;;4.20;0.60;;;17.90;99.90;;;;;;5069782;28;20402;-80
2021/01/07 03:47:26;;;;;;;1.13;0.47;;;18.00;99.90;;;;;;5052062;28;20393;-81
2021/01/07 03:49:53;;;;;;;1.60;0.40;;;18.30;99.90;;;;;;5069991;28;20523;-81
2021/01/07 03:52:20;;;;;;;2.47;0.40;;;18.60;99.90;;;;;;5070805;28;20397;-80
2021/01/07 03:54:47;;;;;;;3.13;0.47;;;18.80;99.90;;;;;;5079240;28;20448;-81
2021/01/07 03:57:15;;;;;;;3.70;0.90;;;19.10;99.90;;;;;;5068031;28;20401;-81
2021/01/07 03:59:42;;;;;;;3.55;0.43;;;19.30;99.90;;;;;;5062415;28;20419;-80
2021/01/07 04:02:09;;;;;;;3.00;0.60;;;19.40;99.90;;;;;;5067065;28;20385;-80
2021/01/07 04:04:36;;;;;;;1.50;0.47;;;19.30;99.90;;;;;;5069365;28;20451;-81
2021/01/07 04:07:03;;;;;;;2.80;0.50;;;19.20;99.90;;;;;;5067951;28;20912;-80
2021/01/07 04:09:30;;;;;;;2.00;0.50;;;19.30;99.90;;;;;;5069087;28;20470;-81
2021/01/07 04:11:57;;;;;;;1.42;0.45;;;19.50;99.90;;;;;;5070387;28;20436;-80
2021/01/07 04:14:24;;;;;;;2.90;0.57;;;19.60;99.90;;;;;;5070978;28;20625;-81
2021/01/07 04:16:51;;;;;;;1.98;0.32;;;19.80;97.00;;;;;;5055021;28;20816;-81
2021/01/07 04:19:18;;;;;;;1.63;0.38;;;19.90;97.10;;;;;;5064339;28;20570;-80
2021/01/07 04:21:45;;;;;;;1.70;0.47;;;19.90;95.40;;;;;;5062091;28;21066;-80
2021/01/07 04:24:14;;;;;;;3.53;0.50;;;20.00;96.20;;;;;;5067846;28;20397;-80
2021/01/07 04:26:42;;;;;;;2.05;0.40;;;20.20;95.40;;;;;;5070886;28;20429;-80
2021/01/07 04:29:10;;;;;;;1.92;0.30;;;20.40;96.90;;;;;;5070328;28;20396;-81
2021/01/07 04:31:38;;;;;;;0.75;0.30;;;20.30;94.10;;;;;;5067165;28;20413;-81
2021/01/07 04:34:06;;;;;;;10.03;1.40;;;20.40;94.80;;;;;;5064642;28;20400;-83
2021/01/07 04:36:33;;;;;;;1.90;0.40;;;20.30;93.50;;;;;;5060383;28;20438;-82
2021/01/07 04:39:01;;;;;;;1.50;0.47;;;20.20;93.50;;;;;;5064376;28;20863;-82
2021/01/07 04:41:28;;;;;;;3.35;0.68;;;20.20;93.70;;;;;;5061745;28;20478;-82
2021/01/07 04:43:57;;;;;;;2.80;0.57;;;20.20;93.70;;;;;;5062877;28;20539;-82
2021/01/07 04:46:24;;;;;;;3.35;0.57;;;20.10;93.50;;;;;;5060321;28;20398;-82
2021/01/07 04:48:51;;;;;;;6.05;0.73;;;20.00;94.00;;;;;;5070542;28;20417;-83
2021/01/07 04:51:19;;;;;;;3.85;0.70;;;20.00;93.70;;;;;;5069747;28;20406;-83
2021/01/07 04:53:48;;;;;;;3.20;0.63;;;20.00;93.80;;;;;;5071073;28;20432;-84
2021/01/07 04:56:15;;;;;;;3.93;0.63;;;20.10;94.70;;;;;;5071015;28;20542;-83
2021/01/07 04:58:42;;;;;;;6.60;1.17;;;20.10;94.80;;;;;;5069906;28;20422;-83
2021/01/07 05:01:09;;;;;;;4.38;0.55;;;20.20;93.20;;;;;;5070725;28;20397;-83
2021/01/07 05:03:36;;;;;;;4.63;0.85;;;20.40;93.20;;;;;;5070832;28;20373;-84
2021/01/07 05:06:04;;;;;;;6.63;0.80;;;20.70;92.30;;;;;;5070776;28;20382;-84
2021/01/07 05:08:31;;;;;;;5.15;0.95;;;20.80;92.30;;;;;;5070508;28;20382;-84
2021/01/07 05:10:58;;;;;;;5.50;0.98;;;21.00;92.60;;;;;;5059778;28;20473;-85
2021/01/07 05:13:25;;;;;;;2.72;0.60;;;20.70;91.10;;;;;;5032741;28;20904;-84
2021/01/07 05:15:52;;;;;;;4.88;0.93;;;20.40;91.70;;;;;;5050103;28;20894;-85
2021/01/07 05:18:19;;;;;;;4.97;1.10;;;20.30;92.60;;;;;;5049799;28;20708;-84
2021/01/07 05:20:47;;;;;;;4.70;0.93;;;20.40;93.40;;;;;;5064260;28;20414;-84
2021/01/07 05:23:14;;;;;;;9.38;1.10;;;20.40;92.90;;;;;;5067123;28;20795;-85
2021/01/07 05:25:42;;;;;;;8.17;1.23;;;20.40;92.20;;;;;;5068496;28;20409;-86
2021/01/07 05:28:10;;;;;;;7.38;1.00;;;20.50;91.50;;;;;;5062132;28;20398;-87
2021/01/07 05:30:37;;;;;;;6.38;0.93;;;20.40;91.10;;;;;;5061816;28;20426;-84
2021/01/07 05:33:06;;;;;;;5.75;0.98;;;20.10;91.10;;;;;;5065034;28;20440;-83
2021/01/07 05:35:34;;;;;;;6.35;0.80;;;19.90;91.90;;;;;;5065383;28;20405;-84
2021/01/07 05:38:03;;;;;;;6.72;0.80;;;19.80;92.30;;;;;;5062197;28;20379;-84
2021/01/07 05:40:31;;;;;;;5.40;0.82;;;20.00;92.30;;;;;;5064493;28;20412;-85
2021/01/07 05:43:01;;;;;;;5.72;1.00;;;20.30;92.30;;;;;;5059592;28;20492;-86
2021/01/07 05:45:36;;;;;;;6.80;0.98;;;20.50;91.50;;;;;;5076460;28;20410;-85
2021/01/07 05:48:04;;;;;;;6.85;1.20;;;20.50;90.30;;;;;;5067454;28;20918;-85
2021/01/07 05:50:38;;;;;;;7.55;1.10;;;20.50;90.80;;;;;;5067843;28;20401;-85
2021/01/07 05:53:05;;;;;;;7.23;0.93;;;20.40;91.20;;;;;;5066202;28;20473;-86
2021/01/07 05:55:33;;;;;;;8.38;1.00;;;20.20;91.30;;;;;;5067078;28;20432;-84
2021/01/07 05:58:01;;;;;;;3.45;0.80;;;20.20;90.80;;;;;;5068835;28;20370;-85
2021/01/07 06:00:33;;;;;;;4.75;1.00;;;20.00;90.80;;;;;;5068998;28;20782;-86
2021/01/07 06:03:02;;;;;;;3.92;0.95;;;19.90;91.10;;;;;;5070355;28;20363;-89
2021/01/07 06:05:30;;;;;;;7.47;1.30;;;19.80;91.50;;;;;;5069937;28;20412;-87
2021/01/07 06:07:59;;;;;;;7.18;1.10;;;19.80;90.90;;;;;;5070049;28;20408;-87
2021/01/07 06:10:26;;;;;;;6.67;1.13;;;20.00;90.70;;;;;;5069759;28;20466;-87
2021/01/07 06:12:54;;;;;;;7.20;0.90;;;20.10;90.70;;;;;;5069491;28;20423;-91
2021/01/07 06:15:25;;;;;;;6.68;0.90;;;20.10;91.20;;;;;;5068070;28;20402;-89
2021/01/07 06:17:53;;;;;;;6.18;1.40;;;20.00;90.20;;;;;;5068719;28;20393;-88
2021/01/07 06:20:21;;;;;;;6.63;0.93;;;19.90;90.20;;;;;;5069805;28;20390;-87
2021/01/07 06:22:53;;;;;;;5.18;1.27;;;19.70;91.00;;;;;;5069809;28;20401;-89
2021/01/07 06:25:22;;;;;;;7.88;1.30;;;19.60;91.60;;;;;;5069900;28;20381;-86
2021/01/07 06:27:54;;;;;;;9.05;1.38;;;19.60;91.80;;;;;;5050780;28;20778;-86
2021/01/07 06:30:21;;;;;;;7.95;1.30;;;19.50;93.70;;;;;;5067348;28;20386;-88
2021/01/07 06:33:07;;;;;;;11.83;1.67;;;19.30;94.80;;;;;;5050627;28;21173;-87
2021/01/07 06:35:36;;;;;;;8.50;1.52;;;19.20;94.80;;;;;;5060184;28;20805;-90
2021/01/07 06:38:04;;;;;;;7.50;1.40;;;19.20;95.20;;;;;;5067813;28;20879;-87
2021/01/07 06:40:31;;;;;;;10.13;1.40;;;19.20;95.70;;;;;;5067683;28;20444;-86
2021/01/07 06:42:58;;;;;;;8.68;1.30;;;19.20;94.90;;;;;;5031007;28;20705;-87
2021/01/07 06:45:26;;;;;;;6.25;1.30;;;19.20;94.90;;;;;;5057566;28;20815;-88
2021/01/07 06:47:55;;;;;;;7.22;1.00;;;19.20;94.60;;;;;;5068236;28;20374;-86
2021/01/07 06:50:24;;;;;;;3.25;0.85;;;19.20;93.50;;;;;;5068889;28;20386;-87
2021/01/07 06:52:51;;;;;;;5.50;1.10;;;19.20;93.50;;;;;;5059184;28;20388;-86
2021/01/07 06:55:20;;;;;;;5.37;0.90;;;19.20;93.90;;;;;;5068289;28;20437;-86
2021/01/07 06:57:49;;;;;;;4.82;0.90;;;19.20;93.70;;;;;;5059359;28;20394;-85
2021/01/07 07:00:21;;;;;;;5.07;0.90;;;19.30;93.40;;;;;;5054570;28;21017;-86
2021/01/07 07:03:04;;;;;;;4.82;1.00;;;19.40;93.00;;;;;;5064762;28;20402;-85
2021/01/07 07:05:34;;;;;;;7.53;1.50;;;19.40;93.20;;;;;;5065119;28;20448;-85
2021/01/07 07:08:16;;;;;;;3.67;0.70;;;19.50;93.20;;;;;;5069042;28;20536;-86
2021/01/07 07:10:51;;;;;;;3.20;0.60;;;19.50;92.60;;;;;;5065383;28;20419;-89
2021/01/07 07:13:20;;;;;;;4.47;0.80;;;19.50;92.60;;;;;;5063458;28;20385;-88
2021/01/07 07:15:51;;;;;;;3.17;0.50;;;19.50;92.80;;;;;;5064089;28;20398;-87
2021/01/07 07:18:37;;;;;;;3.78;0.63;;;19.40;92.90;;;;;;5062992;28;20448;-88
2021/01/07 07:21:19;;;;;;;3.25;0.55;;;19.30;92.30;;;;;;5063851;28;20730;-87
2021/01/07 07:23:48;;;;;;;3.97;0.50;;;19.30;92.20;;;;;;5068540;28;20456;-88
2021/01/07 07:26:31;;;;;;;3.03;0.50;;;19.20;91.30;;;;;;5068897;28;20386;-88
2021/01/07 07:29:01;;;;;;;4.75;0.70;;;19.20;92.50;;;;;;5066280;28;20386;-87
2021/01/07 07:31:38;;;;;;;1.38;0.50;;;19.20;92.00;;;;;;5069006;28;20419;-88
2021/01/07 07:34:06;;;;;;;4.07;0.60;;;19.20;92.90;;;;;;5068730;28;20381;-88
2021/01/07 07:36:34;;;;;;;3.00;0.52;;;19.20;92.60;;;;;;5066789;28;20410;-87
2021/01/07 07:39:04;;;;;;;1.80;0.65;;;19.10;92.70;;;;;;5068028;28;20397;-87
2021/01/07 07:41:44;;;;;;;3.78;0.77;;;19.00;93.20;;;;;;5068516;28;20897;-88
2021/01/07 07:44:13;;;;;;;3.17;0.77;;;19.00;93.40;;;;;;5068745;28;20362;-87
2021/01/07 07:46:40;;;;;;;3.63;0.80;;;19.00;93.90;;;;;;5067821;28;20567;-87
2021/01/07 07:49:10;;;;;;;4.18;0.60;;;19.00;93.50;;;;;;5066661;28;22145;-86
2021/01/07 07:51:41;;;;;;;3.53;0.90;;;19.00;93.80;;;;;;5068871;28;20895;-87
2021/01/07 07:54:10;;;;;;;5.78;1.05;;;18.90;94.60;;;;;;5069104;28;20415;-86
2021/01/07 07:56:38;;;;;;;3.28;0.60;;;18.90;95.60;;;;;;5050363;28;20425;-88
2021/01/07 07:59:07;;;;;;;4.85;0.70;;;18.80;95.10;;;;;;5069200;28;20389;-87
2021/01/07 08:01:41;;;;;;;4.07;0.80;;;18.80;95.30;;;;;;5064715;28;20538;-88
2021/01/07 08:04:13;;;;;;;2.35;0.60;;;18.70;96.00;;;;;;5070452;28;20900;-89
2021/01/07 08:06:41;;;;;;;8.88;1.10;;;18.70;96.00;;;;;;5072064;28;20479;-87
2021/01/07 08:09:10;;;;;;;5.70;0.88;;;18.70;95.70;;;;;;5070849;28;20398;-88
2021/01/07 08:11:41;;;;;;;5.47;1.10;;;18.60;95.90;;;;;;5067592;28;20982;-88
2021/01/07 08:14:15;;;;;;;6.33;1.07;;;18.60;96.50;;;;;;5072780;28;20442;-89
2021/01/07 08:16:43;;;;;;;5.00;1.10;;;18.50;96.70;;;;;;5065101;28;20413;-89
2021/01/07 08:19:24;;;;;;;6.78;0.90;;;18.50;96.20;;;;;;5066729;28;20463;-88
2021/01/07 08:21:53;;;;;;;8.05;1.30;;;18.50;96.60;;;;;;5072558;28;20405;-87
2021/01/07 08:24:22;;;;;;;7.10;1.05;;;18.40;96.70;;;;;;5075295;28;21199;-90
2021/01/07 08:27:29;;;;;;;5.43;1.10;;;18.30;96.80;;;;;;5073129;28;20394;-90
2021/01/07 08:30:01;;;;;;;5.67;1.10;;;18.30;96.80;;;;;;5031576;28;20397;-91
2021/01/07 08:32:43;;;;;;;6.05;1.13;;;18.20;97.20;;;;;;5073906;28;20942;-89
2021/01/07 08:35:16;;;;;;;10.68;1.50;;;18.20;96.80;;;;;;5071480;28;20402;-89
2021/01/07 08:37:44;;;;;;;5.78;1.45;;;18.20;96.30;;;;;;5069750;28;20389;-92
2021/01/07 08:40:15;;;;;;;8.52;1.60;;;18.20;96.30;;;;;;5073474;28;20381;-86
2021/01/07 08:42:42;;;;;;;5.15;1.23;;;18.10;95.90;;;;;;5078933;28;20435;-88
2021/01/07 08:45:11;;;;;;;9.50;1.50;;;18.10;96.10;;;;;;5059635;28;20396;-89
2021/01/07 08:47:38;;;;;;;10.90;1.73;;;18.00;95.90;;;;;;5077490;28;20417;-90
2021/01/07 08:50:10;;;;;;;8.15;1.38;;;18.10;95.70;;;;;;5077931;28;20373;-89
2021/01/07 08:52:51;;;;;;;7.25;1.48;;;18.10;95.70;;;;;;5071414;28;20396;-89
2021/01/07 08:55:20;;;;;;;6.30;1.30;;;18.10;95.90;;;;;;5047830;28;20395;-89
2021/01/07 08:57:47;;;;;;;6.63;1.55;;;18.10;96.00;;;;;;5048284;28;20851;-89
2021/01/07 09:00:23;;;;;;;7.65;1.38;;;18.20;96.00;;;;;;5048133;28;20364;-89
2021/01/07 09:03:01;;;;;;;9.00;1.60;;;18.20;95.70;;;;;;5048355;28;20411;-90
2021/01/07 09:05:33;;;;;;;10.43;1.90;;;18.20;96.10;;;;;;5064530;28;20476;-85
2021/01/07 09:08:10;;;;;;;9.07;1.90;;;18.10;97.60;;;;;;5068009;28;20421;-85
2021/01/07 09:10:38;;;;;;;8.80;1.88;;;17.80;99.50;;;;;;5067653;28;20366;-84
2021/01/07 09:13:18;;;;;;;9.70;2.03;;;17.50;99.90;;;;;;5047807;28;20474;-83
2021/01/07 09:15:45;;;;;;;12.15;1.98;;;17.30;99.90;;;;;;5055402;28;20441;-83
2021/01/07 09:18:13;;;;;;;11.60;2.20;;;17.10;99.90;;;;;;5067577;28;20370;-83
2021/01/07 09:20:40;;;;;;;13.43;2.08;;;17.00;99.90;;;;;;5067769;28;20875;-83
2021/01/07 09:23:09;;;;;;;14.18;2.58;;;17.00;99.90;;;;;;5049310;28;20386;-85
2021/01/07 09:25:37;;;;;;;12.75;2.40;;;17.00;99.90;;;;;;5064496;28;20409;-85
2021/01/07 09:28:05;;;;;;;12.43;2.55;;;16.90;99.90;;;;;;5066689;28;20401;-85
2021/01/07 09:30:32;;;;;;;11.63;2.20;;;16.90;99.90;;;;;;5061360;28;20367;-87
2021/01/07 09:33:00;;;;;;;14.73;2.30;;;16.90;99.90;;;;;;5047573;28;20871;-85
2021/01/07 09:35:28;;;;;;;15.20;2.88;;;16.90;99.90;;;;;;5061262;28;20429;-85
2021/01/07 09:37:56;;;;;;;16.10;2.90;;;16.90;99.90;;;;;;5066992;28;20397;-85
2021/01/07 09:40:23;;;;;;;16.23;2.90;;;16.90;99.90;;;;;;5067277;28;20493;-86
2021/01/07 09:42:51;;;;;;;16.80;2.47;;;16.90;99.90;;;;;;5067026;28;20390;-86
2021/01/07 09:45:18;;;;;;;16.65;2.95;;;16.90;99.90;;;;;;5067051;28;20382;-85
2021/01/07 09:47:45;;;;;;;13.85;2.63;;;16.90;99.90;;;;;;5066897;28;20948;-86
2021/01/07 09:50:14;;;;;;;19.43;3.40;;;16.90;99.90;;;;;;5066578;28;20390;-86
2021/01/07 09:52:42;;;;;;;13.57;2.55;;;17.00;99.90;;;;;;5066859;28;20388;-87
2021/01/07 09:55:10;;;;;;;16.15;3.00;;;16.90;99.90;;;;;;5066607;28;20398;-86
2021/01/07 09:57:37;;;;;;;17.77;2.77;;;16.90;99.90;;;;;;5066640;28;20452;-86
2021/01/07 10:00:06;;;;;;;14.90;3.15;;;16.90;99.90;;;;;;5066975;28;20365;-87
2021/01/07 10:02:33;;;;;;;17.25;2.78;;;16.90;99.90;;;;;;5066585;28;21209;-87
2021/01/07 10:05:00;;;;;;;14.18;2.95;;;16.90;99.90;;;;;;5066792;28;20369;-85
2021/01/07 10:07:27;;;;;;;20.02;3.28;;;16.80;99.90;;;;;;5066626;28;20459;-84
2021/01/07 10:09:54;;;;;;;18.33;3.17;;;16.80;99.90;;;;;;5066931;28;20374;-87
2021/01/07 10:12:21;;;;;;;21.08;3.25;;;16.80;99.90;;;;;;5066301;28;20384;-85
2021/01/07 10:14:49;;;;;;;17.35;3.97;;;16.70;99.90;;;;;;5048134;28;20522;-86
2021/01/07 10:17:16;;;;;;;21.67;3.28;;;16.70;99.90;;;;;;5046419;28;20400;-87
2021/01/07 10:19:43;;;;;;;22.40;3.70;;;16.70;99.90;;;;;;5046621;28;21114;-86
2021/01/07 10:22:13;;;;;;;19.17;2.97;;;16.70;99.90;;;;;;5050310;28;20443;-87
2021/01/07 10:24:45;;;;;;;16.30;3.70;;;16.70;99.90;;;;;;5066076;28;20876;-87
2021/01/07 10:27:15;;;;;;;22.73;3.65;;;16.60;99.90;;;;;;5066018;28;20378;-87
2021/01/07 10:29:43;;;;;;;22.88;3.40;;;16.70;99.90;;;;;;5065968;28;20416;-85
2021/01/07 10:32:15;;;;;;;23.80;4.55;;;16.60;99.90;;;;;;5061704;28;20397;-86
2021/01/07 10:34:45;;;;;;;23.05;3.72;;;16.50;99.90;;;;;;5057093;28;20436;-85
2021/01/07 10:37:16;;;;;;;23.35;4.18;;;16.40;99.90;;;;;;5065565;28;20469;-85
2021/01/07 10:39:46;;;;;;;26.90;4.20;;;16.40;99.90;;;;;;5065966;28;20463;-85
2021/01/07 10:42:15;;;;;;;22.47;3.80;;;16.40;99.90;;;;;;5062529;28;20394;-84
2021/01/07 10:44:44;;;;;;;22.23;4.03;;;16.40;99.90;;;;;;5065463;28;20470;-85
2021/01/07 10:47:13;;;;;;;21.10;3.75;;;16.30;99.90;;;;;;5057293;28;20393;-85
2021/01/07 10:49:43;;;;;;;26.45;3.95;;;16.30;99.90;;;;;;5046977;28;20449;-85
2021/01/07 10:52:17;;;;;;;22.45;4.15;;;16.30;99.90;;;;;;5065799;28;20389;-86
2021/01/07 10:54:46;;;;;;;24.13;3.90;;;16.20;99.90;;;;;;5054227;28;20411;-88
2021/01/07 10:57:44;;;;;;;25.60;4.13;;;16.20;99.90;;;;;;5065940;28;20404;-85
2021/01/07 11:00:22;;;;;;;24.50;3.73;;;16.20;99.90;;;;;;5050492;28;20364;-87
2021/01/07 11:03:10;;;;;;;32.05;5.25;;;16.20;99.90;;;;;;5045770;28;20454;-86
2021/01/07 11:05:39;;;;;;;25.10;3.85;;;16.20;99.90;;;;;;5045873;28;20423;-85
2021/01/07 11:08:24;;;;;;;28.67;4.30;;;16.20;99.90;;;;;;5046299;28;20999;-85
2021/01/07 11:10:58;;;;;;;27.17;4.20;;;16.10;99.90;;;;;;5046207;28;20863;-86
2021/01/07 11:13:36;;;;;;;28.20;4.20;;;16.10;99.90;;;;;;5045697;28;20410;-88
2021/01/07 11:16:05;;;;;;;20.90;3.78;;;16.10;99.90;;;;;;5065451;28;20424;-87
2021/01/07 11:18:48;;;;;;;25.25;3.60;;;16.00;99.90;;;;;;5066110;28;20370;-85
2021/01/07 11:21:23;;;;;;;28.77;4.43;;;16.10;99.90;;;;;;5065852;28;20761;-87
2021/01/07 11:23:52;;;;;;;23.20;3.97;;;16.10;99.90;;;;;;5065649;28;20921;-87
2021/01/07 11:26:21;;;;;;;20.38;3.70;;;16.20;99.90;;;;;;5065940;28;20431;-87
2021/01/07 11:28:51;;;;;;;23.10;3.95;;;16.30;99.90;;;;;;5065829;28;20881;-87
2021/01/07 11:31:19;;;;;;;21.45;4.00;;;16.20;99.90;;;;;;5065710;28;20389;-89
2021/01/07 11:33:49;;;;;;;25.15;4.30;;;16.10;99.90;;;;;;5065649;28;20366;-86
2021/01/07 11:36:24;;;;;;;21.15;4.28;;;16.20;99.90;;;;;;5065980;28;20390;-87
2021/01/07 11:39:00;;;;;;;20.85;3.92;;;16.10;99.90;;;;;;5065125;28;20382;-87
2021/01/07 11:41:33;;;;;;;26.20;3.88;;;16.20;99.90;;;;;;5066767;28;20410;-89
2021/01/07 11:44:42;;;;;;;26.13;4.30;;;16.20;99.90;;;;;;5069597;28;20393;-87
2021/01/07 11:47:11;;;;;;;19.40;3.47;;;16.10;99.90;;;;;;5069214;28;20465;-88
2021/01/07 11:49:41;;;;;;;18.97;3.57;;;16.10;99.90;;;;;;5074084;28;20394;-88
2021/01/07 11:52:11;;;;;;;22.50;3.50;;;16.20;99.90;;;;;;5072497;28;20382;-88
2021/01/07 11:54:40;;;;;;;20.13;3.50;;;16.20;99.40;;;;;;5072384;28;20946;-86
2021/01/07 11:57:08;;;;;;;19.38;2.90;;;16.20;98.50;;;;;;5053722;28;20395;-88
2021/01/07 11:59:40;;;;;;;14.50;2.80;;;16.20;98.20;;;;;;5052199;28;20383;-88
2021/01/07 12:02:09;;;;;;;21.58;3.50;;;16.30;98.40;;;;;;5069956;28;20429;-90
2021/01/07 12:04:37;;;;;;;18.13;2.77;;;16.20;98.50;;;;;;5067976;28;20392;-88
2021/01/07 12:07:19;;;;;;;18.17;3.03;;;16.10;99.00;;;;;;5068725;28;20405;-89
2021/01/07 12:09:46;;;;;;;13.90;3.03;;;16.10;98.00;;;;;;5066500;28;20398;-87
2021/01/07 12:12:19;;;;;;;13.90;2.80;;;16.10;98.80;;;;;;5070054;28;20409;-87
2021/01/07 12:14:54;;;;;;;16.92;2.72;;;16.10;97.50;;;;;;5061596;28;20418;-87
2021/01/07 12:17:21;;;;;;;21.55;3.70;;;16.10;98.90;;;;;;5060310;28;20374;-88
2021/01/07 12:19:49;;;;;;;20.92;3.58;;;16.10;97.40;;;;;;5071412;28;20397;-88
2021/01/07 12:22:18;;;;;;;13.05;2.53;;;16.00;99.00;;;;;;5071489;28;20392;-87
2021/01/07 12:24:45;;;;;;;16.15;2.97;;;15.90;99.40;;;;;;5070101;28;20390;-88
2021/01/07 12:27:12;;;;;;;19.63;3.40;;;15.80;98.70;;;;;;5063254;28;20382;-88
2021/01/07 12:29:40;;;;;;;16.00;2.50;;;15.80;98.50;;;;;;5071808;28;20370;-88
2021/01/07 12:32:36;;;;;;;15.35;2.90;;;15.80;98.60;;;;;;5071635;28;20382;-88
2021/01/07 12:35:36;;;;;;;17.25;2.78;;;15.90;97.70;;;;;;5071570;28;20496;-88
2021/01/07 12:38:24;;;;;;;15.60;2.90;;;15.80;97.90;;;;;;5062830;28;20408;-88
2021/01/07 12:41:06;;;;;;;16.77;2.70;;;15.80;97.80;;;;;;5061306;28;20397;-88
2021/01/07 12:43:42;;;;;;;13.17;2.80;;;15.80;98.70;;;;;;5063105;28;20401;-88
2021/01/07 12:46:15;;;;;;;13.77;2.60;;;15.80;97.90;;;;;;5062795;28;20967;-88
2021/01/07 12:48:43;;;;;;;13.30;2.33;;;15.80;97.40;;;;;;5070901;28;20436;-89
2021/01/07 12:51:13;;;;;;;20.47;3.30;;;15.70;98.30;;;;;;5069666;28;20415;-88
2021/01/07 12:53:42;;;;;;;16.60;2.78;;;15.70;99.30;;;;;;5068523;28;20395;-88
2021/01/07 12:56:15;;;;;;;18.02;3.38;;;15.60;99.90;;;;;;5069436;28;20410;-87